createdAt,value
2023-05-25T00:03:05.014Z,8.03
2023-05-25T00:08:09.054Z,7.97
2023-05-25T00:13:12.809Z,7.92
2023-05-25T00:18:16.523Z,7.84
2023-05-25T00:23:21.763Z,7.79
2023-05-25T00:28:25.616Z,7.76
2023-05-25T00:33:29.655Z,7.80
2023-05-25T00:38:33.389Z,7.84
2023-05-25T00:43:37.240Z,7.87
2023-05-25T00:48:41.224Z,7.84
2023-05-25T00:53:44.988Z,7.77
2023-05-25T00:58:51.194Z,7.70
2023-05-25T01:03:56.846Z,7.62
2023-05-25T01:09:04.696Z,7.53
2023-05-25T01:14:09.595Z,7.41
2023-05-25T01:19:13.638Z,7.30
2023-05-25T01:24:32.781Z,7.26
2023-05-25T01:29:38.002Z,7.23
2023-05-25T01:34:44.264Z,7.18
2023-05-25T01:39:48.073Z,7.14
2023-05-25T01:44:51.930Z,7.11
2023-05-25T01:50:14.458Z,7.07
2023-05-25T01:55:19.851Z,7.01
2023-05-25T02:00:25.372Z,6.96
2023-05-25T02:05:29.358Z,6.96
2023-05-25T02:10:33.609Z,7.02
2023-05-25T02:15:38.095Z,7.18
2023-05-25T02:20:41.967Z,7.32
2023-05-25T02:25:46.851Z,7.41
2023-05-25T02:30:50.796Z,7.48
2023-05-25T02:35:55.766Z,7.56
2023-05-25T02:40:59.656Z,7.65
2023-05-25T02:46:03.612Z,7.72
2023-05-25T02:51:07.717Z,7.78
2023-05-25T02:56:11.835Z,7.82
2023-05-25T03:01:19.416Z,7.86
2023-05-25T03:06:29.004Z,7.89
2023-05-25T03:11:35.247Z,7.90
2023-05-25T03:16:40.450Z,7.93
2023-05-25T03:21:44.409Z,8.00
2023-05-25T03:26:51.703Z,8.06
2023-05-25T03:31:55.638Z,8.12
2023-05-25T03:37:04.078Z,8.21
2023-05-25T03:42:08.576Z,8.30
2023-05-25T03:47:13.898Z,8.39
2023-05-25T03:52:17.695Z,8.46
2023-05-25T03:57:21.711Z,8.53
2023-05-25T04:02:25.565Z,8.62
2023-05-25T04:07:31.463Z,8.71
2023-05-25T04:12:36.676Z,8.80
2023-05-25T04:17:41.520Z,8.88
2023-05-25T04:22:45.415Z,9.00
2023-05-25T04:27:49.612Z,9.10
2023-05-25T04:33:04.372Z,9.23
2023-05-25T04:38:27.454Z,9.33
2023-05-25T04:43:31.439Z,9.45
2023-05-25T04:48:39.516Z,9.55
2023-05-25T04:53:43.544Z,9.70
2023-05-25T04:58:47.501Z,9.81
2023-05-25T05:03:51.888Z,9.90
2023-05-25T05:08:58.099Z,10.00
2023-05-25T05:14:01.986Z,10.13
2023-05-25T05:19:06.564Z,10.18
2023-05-25T05:24:11.252Z,10.15
2023-05-25T05:29:15.047Z,10.17
2023-05-25T05:34:21.716Z,10.26
2023-05-25T05:39:25.661Z,10.33
2023-05-25T05:44:32.382Z,10.42
2023-05-25T05:49:39.646Z,10.52
2023-05-25T05:54:43.737Z,10.66
2023-05-25T05:59:51.003Z,10.83
2023-05-25T06:04:55.376Z,10.95
2023-05-25T06:10:03.932Z,11.06
2023-05-25T06:15:16.336Z,11.17
2023-05-25T06:20:22.777Z,11.27
2023-05-25T06:25:27.155Z,11.40
2023-05-25T06:30:32.145Z,11.58
2023-05-25T06:35:36.065Z,11.80
2023-05-25T06:40:40.078Z,11.99
2023-05-25T06:45:44.351Z,12.20
2023-05-25T06:50:49.141Z,12.39
2023-05-25T06:55:53.223Z,12.60
2023-05-25T07:00:57.085Z,12.84
2023-05-25T07:06:00.926Z,13.03
2023-05-25T07:11:05.150Z,13.22
2023-05-25T07:16:08.973Z,13.44
2023-05-25T07:21:12.735Z,13.68
2023-05-25T07:26:17.034Z,13.83
2023-05-25T07:31:20.913Z,14.03
2023-05-25T07:36:25.259Z,14.33
2023-05-25T07:41:28.926Z,14.57
2023-05-25T07:46:32.747Z,14.75
2023-05-25T07:51:37.036Z,14.96
2023-05-25T07:56:40.908Z,15.18
2023-05-25T08:01:44.704Z,15.29
2023-05-25T08:06:48.514Z,15.31
2023-05-25T08:11:52.382Z,15.32
2023-05-25T08:16:59.833Z,15.26
2023-05-25T08:22:03.798Z,15.31
2023-05-25T08:27:07.479Z,15.45
2023-05-25T08:32:11.454Z,15.46
2023-05-25T08:37:15.259Z,15.44
2023-05-25T08:42:19.129Z,15.46
2023-05-25T08:47:23.848Z,15.54
2023-05-25T08:52:30.050Z,15.63
2023-05-25T08:57:42.695Z,15.89
2023-05-25T09:03:07.584Z,16.03
2023-05-25T09:08:11.882Z,16.18
2023-05-25T09:18:22.990Z,16.64
2023-05-25T09:23:26.968Z,16.90
2023-05-25T09:28:30.705Z,17.35
2023-05-25T09:33:36.879Z,17.83
2023-05-25T09:38:41.706Z,18.38
2023-05-25T09:44:02.196Z,18.55
2023-05-25T09:49:12.590Z,18.61
2023-05-25T09:54:16.898Z,18.92
2023-05-25T09:59:22.573Z,19.11
2023-05-25T10:04:26.557Z,19.09
2023-05-25T10:09:31.009Z,19.10
2023-05-25T10:14:37.449Z,18.90
2023-05-25T10:19:49.616Z,18.98
2023-05-25T10:25:12.087Z,19.12
2023-05-25T10:30:16.812Z,19.15
2023-05-25T10:35:21.889Z,19.29
2023-05-25T10:40:25.710Z,19.18
2023-05-25T10:45:31.122Z,19.25
2023-05-25T10:50:38.051Z,19.36
2023-05-25T10:55:49.702Z,19.53
2023-05-25T11:01:08.683Z,20.00
2023-05-25T11:06:17.162Z,19.84
2023-05-25T11:11:21.388Z,19.76
2023-05-25T11:16:29.813Z,19.49
2023-05-25T11:21:37.130Z,19.60
2023-05-25T11:26:56.960Z,19.91
2023-05-25T11:32:01.538Z,19.88
2023-05-25T11:37:05.479Z,19.84
2023-05-25T11:42:11.764Z,19.94
2023-05-25T11:47:19.303Z,19.89
2023-05-25T11:52:25.412Z,19.71
2023-05-25T11:57:29.378Z,19.54
2023-05-25T12:02:44.002Z,19.36
2023-05-25T12:07:48.154Z,19.34
2023-05-25T12:12:52.588Z,19.51
2023-05-25T12:17:57.453Z,19.63
2023-05-25T12:23:02.183Z,19.80
2023-05-25T12:28:12.715Z,20.01
2023-05-25T12:33:16.668Z,19.88
2023-05-25T12:38:24.328Z,19.76
2023-05-25T12:43:45.787Z,19.87
2023-05-25T12:48:49.587Z,20.15
2023-05-25T12:53:54.647Z,20.24
2023-05-25T12:59:16.882Z,20.15
2023-05-25T13:04:20.776Z,20.35
2023-05-25T13:09:29.123Z,20.90
2023-05-25T13:14:32.969Z,21.35
2023-05-25T13:19:37.302Z,21.35
2023-05-25T13:24:41.440Z,21.02
2023-05-25T13:29:45.145Z,20.76
2023-05-25T13:34:54.413Z,20.51
2023-05-25T13:40:01.151Z,20.32
2023-05-25T13:45:08.710Z,20.47
2023-05-25T13:50:12.626Z,20.34
2023-05-25T13:55:16.574Z,20.20
2023-05-25T14:00:20.631Z,20.14
2023-05-25T14:05:24.793Z,20.48
2023-05-25T14:10:28.917Z,21.02
2023-05-25T14:15:33.080Z,21.67
2023-05-25T14:20:38.421Z,22.24
2023-05-25T14:25:45.577Z,22.28
2023-05-25T14:30:50.059Z,22.32
2023-05-25T14:35:53.837Z,22.10
2023-05-25T14:40:57.637Z,22.03
2023-05-25T14:46:01.510Z,22.22
2023-05-25T14:51:06.216Z,22.22
2023-05-25T14:56:11.291Z,22.20
2023-05-25T15:01:15.281Z,22.13
2023-05-25T15:06:19.024Z,21.74
2023-05-25T15:11:22.814Z,21.34
2023-05-25T15:16:26.653Z,21.24
2023-05-25T15:21:30.860Z,21.15
2023-05-25T15:26:34.914Z,21.08
2023-05-25T15:31:38.781Z,21.24
2023-05-25T15:36:45.630Z,21.37
2023-05-25T15:41:56.933Z,21.24
2023-05-25T15:47:03.943Z,21.13
2023-05-25T15:52:08.092Z,21.07
2023-05-25T15:57:15.448Z,21.27
2023-05-25T16:02:20.125Z,21.34
2023-05-25T16:07:24.064Z,21.63
2023-05-25T16:12:28.613Z,21.63
2023-05-25T16:17:32.569Z,21.51
2023-05-25T16:22:36.342Z,21.43
2023-05-25T16:27:40.214Z,21.39
2023-05-25T16:32:43.999Z,21.42
2023-05-25T16:37:47.789Z,21.05
2023-05-25T16:42:51.727Z,20.59
2023-05-25T16:47:55.462Z,20.18
2023-05-25T16:52:59.361Z,20.64
2023-05-25T16:58:03.433Z,22.15
2023-05-25T17:03:07.498Z,23.54
2023-05-25T17:08:12.577Z,24.52
2023-05-25T17:13:18.882Z,25.45
2023-05-25T17:18:22.774Z,25.87
2023-05-25T17:23:27.384Z,25.58
2023-05-25T17:28:33.221Z,25.20
2023-05-25T17:33:36.948Z,24.49
2023-05-25T17:38:41.653Z,23.46
2023-05-25T17:43:46.728Z,22.67
2023-05-25T17:48:50.806Z,21.88
2023-05-25T17:53:54.621Z,21.12
2023-05-25T17:58:58.392Z,20.53
2023-05-25T18:04:02.592Z,20.04
2023-05-25T18:09:06.413Z,19.69
2023-05-25T18:14:10.706Z,19.39
2023-05-25T18:19:21.552Z,19.06
2023-05-25T18:24:28.950Z,18.66
2023-05-25T18:29:33.075Z,18.29
2023-05-25T18:34:37.224Z,17.94
2023-05-25T18:39:42.505Z,17.55
2023-05-25T18:44:46.802Z,17.17
2023-05-25T18:49:51.977Z,16.82
2023-05-25T18:54:56.445Z,16.47
2023-05-25T19:00:07.882Z,16.12
2023-05-25T19:05:11.991Z,15.77
2023-05-25T19:10:16.288Z,15.45
2023-05-25T19:15:20.659Z,15.15
2023-05-25T19:20:28.638Z,14.87
2023-05-25T19:25:32.747Z,14.61
2023-05-25T19:30:36.940Z,14.39
2023-05-25T19:35:42.059Z,14.21
2023-05-25T19:40:46.548Z,14.05
2023-05-25T19:45:50.915Z,13.89
2023-05-25T19:50:54.938Z,13.72
2023-05-25T19:56:00.181Z,13.56
2023-05-25T20:01:04.316Z,13.37
2023-05-25T20:06:08.782Z,13.21
2023-05-25T20:11:13.481Z,13.08
2023-05-25T20:16:17.523Z,12.99
2023-05-25T20:21:22.466Z,12.92
2023-05-25T20:26:26.310Z,12.85
2023-05-25T20:31:30.139Z,12.77
2023-05-25T20:36:33.930Z,12.68
2023-05-25T20:41:38.343Z,12.56
2023-05-25T20:46:42.568Z,12.40
2023-05-25T20:51:50.558Z,12.23
2023-05-25T20:56:55.403Z,12.04
2023-05-25T21:01:59.612Z,11.83
2023-05-25T21:07:03.891Z,11.64
2023-05-25T21:12:07.955Z,11.47
2023-05-25T21:17:12.030Z,11.37
2023-05-25T21:22:16.604Z,11.31
2023-05-25T21:27:20.381Z,11.23
2023-05-25T21:32:24.371Z,11.18
2023-05-25T21:37:28.639Z,11.13
2023-05-25T21:42:32.461Z,11.09
2023-05-25T21:47:36.215Z,11.07
2023-05-25T21:52:40.384Z,11.04
2023-05-25T21:57:44.347Z,11.01
2023-05-25T22:02:49.280Z,10.99
2023-05-25T22:07:54.994Z,10.99
2023-05-25T22:12:59.412Z,11.00
2023-05-25T22:18:03.131Z,11.00
2023-05-25T22:23:07.628Z,10.96
2023-05-25T22:28:11.512Z,10.93
2023-05-25T22:33:15.242Z,10.91
2023-05-25T22:38:18.921Z,10.91
2023-05-25T22:43:22.434Z,10.89
2023-05-25T22:48:26.584Z,10.81
2023-05-25T22:53:30.271Z,10.70
2023-05-25T22:58:33.936Z,10.59
2023-05-25T23:03:37.590Z,10.54
2023-05-25T23:08:41.282Z,10.47
2023-05-25T23:13:45.562Z,10.39
2023-05-25T23:18:49.080Z,10.30
2023-05-25T23:23:52.556Z,10.26
2023-05-25T23:28:56.253Z,10.26
2023-05-25T23:34:00.592Z,10.23
2023-05-25T23:45:58.984Z,10.03
2023-05-25T23:51:02.823Z,10.01
2023-05-25T23:56:06.768Z,10.01
